Terminal Aerodrome Forecast
Issued by NWS

Home | Current Version | Previous Version | Text Only | Print | Product List | Glossary On
Versions: 1 2 3 4 5 6 7 8 9 10 11 12 13 14 15 16
000
FTUS43 KMPX 291100
TAFRWF
TAF
KRWF 291140Z 2912/3012 18003KT 6SM BR SCT008 BKN014
     FM291400 VRB02KT P6SM SCT015 BKN040
     FM291800 VRB03KT P6SM VCTS SCT025CB BKN060
     FM292100 VRB02KT P6SM SCT020 BKN050
     FM300400 32003KT 6SM BR SCT007 OVC013
     FM300800 32005KT 2SM BR OVC004=

USA.gov is the U.S. government's official web portal to all federal, state and local government web resources and services.